Aviation Digital Data Service (ADDS)

Output produced by METARs form (1245 UTC 25 September 2018)
found at http://www.aviationweather.gov/metar/data/
 
GUCY 251100Z 14008KT 9999 BKN015 BKN110 28/24 Q1014 NOSIG
TAF GUCY 251100Z 2512/2618 22008KT 9999 SCT015 BKN110 
     TEMPO 2512/2518 12012KT 5000 -TSRA BKN013 FEW023CB BKN100 
     BECMG 2605/2609 VRB02KT 
     PROB30 
     TEMPO 2614/2618 06010KT 6000 -TSRA BKN013 FEW023CB BKN100